Pittsburgh, PA (15213)

3:10 PM EDT on September 30, 2016 (GMT -0400)
University of Pittsburgh WeatherSTEM | | Change Station

Elev 1062 ft 40.44 °N, 79.95 °W | Updated 60 seconds ago

Overcast
Overcast
60.7 °F
Feels Like 60.7 °F
N
17.0
Wind Variable Wind from ESE

Today
High -- | Low -- °F
--% Chance of Precip.
Yesterday
High -- | Low -- °F
Precip. -- in
Pressure 30.10 in
Visibility 10.0 miles
Clouds Overcast 2300 ft
Dew Point 56 °F
Humidity 83%
Rainfall 0.09 in
Snow Depth Not available.
7:15 AM 7:02 PM
Waning Crescent, 0% visible
METAR KAGC 301853Z 07007KT 10SM OVC023 17/12 A3010 RMK AO2 SLP193 T01720122
Pressure 30.10 in
Visibility 10.0 miles
Clouds Overcast 2300 ft
Dew Point 56 °F
Humidity 83%
Rainfall 0.09 in
Snow Depth Not available.
7:15 AM 7:02 PM
Waning Crescent, 0% visible
METAR KAGC 301853Z 07007KT 10SM OVC023 17/12 A3010 RMK AO2 SLP193 T01720122

10-Day Weather Forecast

Almanac

Astronomy

Sep. 30, 2016 Rise Set
Actual Time
Civil Twilight
Nautical Twilight
Astronomical Twilight
Moon
Length of Visible Light
Length of Day
Tomorrow will be .
, % of the Moon is Illuminated

Today's Extremes

State Highs State Lows

Community

WunderPhotos

Upload Photos

1,942,757 photos uploaded!

WunderBlog® & News

Nearby

Air Quality

  Air Quality AQ Index Pollutant
Not available.

Snow Depth

Station Depth Elevation

Earthquake Activity

City Distance Mag. Time & Date
Minimum magnitude displayed is 2.5.

Coastal Water Temperatures

Place Temperature

Stations

Nearby Weather Stations

Station Location Temp. Windchill Dew Point Humidity Wind Precip. Elev Updated Type
                   

Watches & Warnings

There are currently no watches in effect.